Time;durP1;ratioP1;P1;durP2;ratioP2;P2;SDS_P1;SDS_P2;PMS_P1;PMS_P2;Temp;Humidity;BMP_temperature;BMP_pressure;BME280_temperature;BME280_humidity;BME280_pressure;Samples;Min_cycle;Max_cycle;Signal;HPM_P1;HPM_P2
2022/06/19 00:02:16;;;;;;;;;;;;;;;26.89;48.83;99703.69;5006566;28;6796;-76
2022/06/19 00:04:46;;;;;;;;;;;;;;;26.85;48.70;99695.00;5015556;28;6832;-76
2022/06/19 00:07:12;;;;;;;;;;;;;;;26.81;48.77;99689.88;5012553;28;7073;-76
2022/06/19 00:09:39;;;;;;;;;;;;;;;26.74;48.92;99687.44;5011680;28;7023;-76
2022/06/19 00:12:05;;;;;;;;;;;;;;;26.67;49.41;99680.66;4993999;28;6876;-76
2022/06/19 00:14:33;;;;;;;;;;;;;;;26.63;49.61;99694.78;5009544;28;6976;-76
2022/06/19 00:17:00;;;;;;;;;;;;;;;26.57;49.60;99684.47;4997810;28;6978;-76
2022/06/19 00:19:26;;;;;;;;;;;;;;;26.55;49.70;99678.38;5012639;28;7583;-76
2022/06/19 00:21:52;;;;;;;;;;;;;;;26.52;49.51;99675.88;4990429;28;7190;-76
2022/06/19 00:24:18;;;;;;;;;;;;;;;26.49;49.62;99666.31;5010547;28;6796;-76
2022/06/19 00:26:43;;;;;;;;;;;;;;;26.47;49.35;99669.00;5012129;28;8075;-76
2022/06/19 00:29:10;;;;;;;;;;;;;;;26.42;49.84;99651.66;5010986;28;6963;-76
2022/06/19 00:31:35;;;;;;;;;;;;;;;26.39;49.43;99646.47;4996289;28;6974;-76
2022/06/19 00:34:01;;;;;;;;;;;;;;;26.34;49.76;99642.22;5005761;28;7045;-76
2022/06/19 00:36:27;;;;;;;;;;;;;;;26.29;49.58;99627.50;5021958;28;7360;-76
2022/06/19 00:38:55;;;;;;;;;;;;;;;26.24;49.90;99618.91;5017129;28;7200;-76
2022/06/19 00:41:22;;;;;;;;;;;;;;;26.18;50.28;99626.03;5016232;28;7899;-76
2022/06/19 00:44:03;;;;;;;;;;;;;;;26.13;50.20;99625.28;5015808;28;7449;-76
2022/06/19 00:46:50;;;;;;;;;;;;;;;26.05;50.32;99624.66;5014244;28;6820;-76
2022/06/19 00:49:42;;;;;;;;;;;;;;;25.95;50.64;99621.44;5027651;28;9558;-76
2022/06/19 00:52:20;;;;;;;;;;;;;;;25.88;50.95;99617.25;5015809;28;7178;-76
2022/06/19 00:55:16;;;;;;;;;;;;;;;25.81;51.73;99600.84;5024742;28;7358;-76
2022/06/19 00:57:50;;;;;;;;;;;;;;;25.73;51.74;99597.56;5025551;28;6811;-76
2022/06/19 01:00:26;;;;;;;;;;;;;;;25.68;51.78;99602.06;5017156;28;8068;-76
2022/06/19 01:03:18;;;;;;;;;;;;;;;25.60;52.38;99618.88;5000844;28;6807;-76
2022/06/19 01:05:47;;;;;;;;;;;;;;;25.56;52.29;99616.38;5021159;28;7082;-79
2022/06/19 01:08:14;;;;;;;;;;;;;;;25.52;52.31;99611.19;5018922;28;7061;-79
2022/06/19 01:10:48;;;;;;;;;;;;;;;25.49;52.70;99607.75;5017629;28;6823;-79
2022/06/19 01:13:18;;;;;;;;;;;;;;;25.45;52.73;99604.38;5028661;28;6799;-79
2022/06/19 01:15:45;;;;;;;;;;;;;;;25.41;52.39;99604.50;5020026;28;6895;-79
2022/06/19 01:18:12;;;;;;;;;;;;;;;25.38;52.64;99595.78;4995388;28;8470;-79
2022/06/19 01:20:42;;;;;;;;;;;;;;;25.35;52.38;99588.03;5027528;28;6816;-79
2022/06/19 01:23:27;;;;;;;;;;;;;;;25.30;52.02;99595.16;5008685;28;6845;-79
2022/06/19 01:25:53;;;;;;;;;;;;;;;25.24;52.46;99590.06;5018163;28;7650;-79
2022/06/19 01:31:39;;;;;;;;;;;;;;;25.12;52.00;99577.28;5019512;28;6812;-78
2022/06/19 01:34:27;;;;;;;;;;;;;;;25.04;52.42;99594.06;5012422;28;8000;-78
2022/06/19 01:36:57;;;;;;;;;;;;;;;24.96;52.44;99598.63;5019556;28;6995;-78
2022/06/19 01:39:25;;;;;;;;;;;;;;;24.91;53.03;99605.72;5020189;28;8700;-78
2022/06/19 01:41:51;;;;;;;;;;;;;;;24.87;52.91;99590.97;5026784;28;7148;-78
2022/06/19 01:44:17;;;;;;;;;;;;;;;24.85;52.66;99592.78;5027178;28;7001;-78
2022/06/19 01:46:42;;;;;;;;;;;;;;;24.81;52.97;99595.44;5020346;28;7014;-78
2022/06/19 01:49:08;;;;;;;;;;;;;;;24.78;52.54;99576.34;5018934;28;6784;-78
2022/06/19 01:51:34;;;;;;;;;;;;;;;24.75;52.88;99572.00;5011588;28;7038;-79
2022/06/19 01:54:16;;;;;;;;;;;;;;;24.71;53.08;99599.16;5020547;28;7442;-78
2022/06/19 01:56:42;;;;;;;;;;;;;;;24.66;53.17;99591.41;5018226;28;6807;-78
2022/06/19 01:59:10;;;;;;;;;;;;;;;24.65;52.72;99592.31;5018350;28;7136;-78
2022/06/19 02:01:39;;;;;;;;;;;;;;;24.63;52.89;99599.34;5018765;28;6788;-78
2022/06/19 02:04:07;;;;;;;;;;;;;;;24.61;52.63;99605.50;5017921;28;6977;-79
2022/06/19 02:06:47;;;;;;;;;;;;;;;24.58;53.33;99616.06;4999780;28;6970;-79
2022/06/19 02:09:19;;;;;;;;;;;;;;;24.55;52.92;99617.88;5026042;28;6812;-79
2022/06/19 02:11:45;;;;;;;;;;;;;;;24.49;53.02;99618.00;5017087;28;9631;-79
2022/06/19 02:14:14;;;;;;;;;;;;;;;24.44;52.84;99617.25;5017991;28;6792;-79
2022/06/19 02:16:44;;;;;;;;;;;;;;;24.40;52.29;99647.00;5002438;28;6964;-79
2022/06/19 02:19:09;;;;;;;;;;;;;;;24.33;52.79;99692.53;5019473;28;6803;-79
2022/06/19 02:21:49;;;;;;;;;;;;;;;24.25;52.92;99734.56;5021172;28;8364;-79
2022/06/19 02:24:20;;;;;;;;;;;;;;;24.15;52.74;99667.59;5019240;28;8521;-79
2022/06/19 02:26:49;;;;;;;;;;;;;;;23.99;52.11;99619.00;5025609;28;6823;-79
2022/06/19 02:29:18;;;;;;;;;;;;;;;23.86;52.27;99641.06;5027465;28;8777;-79
2022/06/19 02:31:51;;;;;;;;;;;;;;;23.71;52.01;99745.09;5024355;28;6974;-79
2022/06/19 02:34:25;;;;;;;;;;;;;;;23.58;51.88;99714.81;5019214;28;7173;-79
2022/06/19 02:36:58;;;;;;;;;;;;;;;23.43;51.60;99635.72;5001828;28;7594;-80
2022/06/19 02:40:00;;;;;;;;;;;;;;;23.24;51.19;99691.78;5002298;28;8688;-80
2022/06/19 02:42:35;;;;;;;;;;;;;;;23.02;51.37;99733.91;5015037;28;8495;-79
2022/06/19 02:45:27;;;;;;;;;;;;;;;22.88;50.92;99689.69;5018946;28;6996;-77
2022/06/19 02:47:57;;;;;;;;;;;;;;;22.69;50.92;99656.00;5014508;28;6979;-78
2022/06/19 02:50:32;;;;;;;;;;;;;;;22.55;50.77;99697.97;5014694;28;7374;-78
2022/06/19 02:52:58;;;;;;;;;;;;;;;22.41;51.22;99759.91;5000113;28;7665;-79
2022/06/19 02:55:23;;;;;;;;;;;;;;;22.28;51.07;99720.88;4996940;28;8400;-78
2022/06/19 02:57:50;;;;;;;;;;;;;;;22.17;51.25;99811.47;4998417;28;7564;-78
2022/06/19 03:00:23;;;;;;;;;;;;;;;22.07;51.15;99740.25;5019589;28;7090;-79
2022/06/19 03:02:59;;;;;;;;;;;;;;;21.98;50.96;99750.78;5016069;28;6815;-79
2022/06/19 03:05:28;;;;;;;;;;;;;;;21.88;50.81;99809.97;4997175;28;6820;-78
2022/06/19 03:07:54;;;;;;;;;;;;;;;21.76;50.74;99745.72;5012917;28;6917;-78
2022/06/19 03:10:21;;;;;;;;;;;;;;;21.66;50.78;99768.38;4985445;28;8389;-78
2022/06/19 03:12:47;;;;;;;;;;;;;;;21.58;50.85;99798.88;5017996;28;8016;-78
2022/06/19 03:15:17;;;;;;;;;;;;;;;21.48;50.72;99793.72;5016984;28;6980;-78
2022/06/19 03:17:43;;;;;;;;;;;;;;;21.40;50.57;99812.91;5001658;28;6996;-78
2022/06/19 03:20:16;;;;;;;;;;;;;;;21.32;51.04;99831.16;5015404;28;6961;-78
2022/06/19 03:22:41;;;;;;;;;;;;;;;21.24;50.94;99823.41;5014134;28;7212;-78
2022/06/19 03:25:07;;;;;;;;;;;;;;;21.16;50.59;99851.22;4998157;28;6944;-78
2022/06/19 03:27:33;;;;;;;;;;;;;;;21.09;51.10;99847.78;5016760;28;7006;-78
2022/06/19 03:29:58;;;;;;;;;;;;;;;21.02;50.79;99836.53;5013159;28;6879;-78
2022/06/19 03:32:24;;;;;;;;;;;;;;;20.98;50.91;99862.59;5015432;28;7179;-78
2022/06/19 03:34:51;;;;;;;;;;;;;;;20.94;50.87;99866.94;5031836;28;7890;-78
2022/06/19 03:37:16;;;;;;;;;;;;;;;20.91;51.04;99883.44;5018526;28;6792;-78
2022/06/19 03:39:42;;;;;;;;;;;;;;;20.88;51.07;99896.47;5019948;28;6799;-78
2022/06/19 03:42:11;;;;;;;;;;;;;;;20.88;50.94;99878.25;5014132;28;6946;-78
2022/06/19 03:44:37;;;;;;;;;;;;;;;20.85;50.62;99882.59;5014643;28;6812;-78
2022/06/19 03:47:05;;;;;;;;;;;;;;;20.82;50.59;99896.47;5008289;28;7200;-78
2022/06/19 03:49:31;;;;;;;;;;;;;;;20.76;50.34;99893.84;5017292;28;6812;-78
2022/06/19 03:51:57;;;;;;;;;;;;;;;20.72;50.22;99913.84;5017101;28;6791;-78
2022/06/19 03:54:22;;;;;;;;;;;;;;;20.67;50.05;99903.44;5018111;28;6882;-79
2022/06/19 03:56:48;;;;;;;;;;;;;;;20.68;49.63;99907.78;5019677;28;6887;-78
2022/06/19 03:59:14;;;;;;;;;;;;;;;20.66;49.98;99906.88;4986139;28;6947;-78
2022/06/19 04:01:40;;;;;;;;;;;;;;;20.67;49.69;99908.66;5011108;28;6887;-78
2022/06/19 04:04:08;;;;;;;;;;;;;;;20.64;49.42;99900.81;5024175;28;6820;-78
2022/06/19 04:06:40;;;;;;;;;;;;;;;20.60;48.76;99877.41;5014114;28;6895;-78
2022/06/19 04:09:10;;;;;;;;;;;;;;;20.54;49.29;99879.16;5020949;28;6982;-79
2022/06/19 04:11:36;;;;;;;;;;;;;;;20.50;49.24;99887.81;5011715;28;6997;-78
2022/06/19 04:14:02;;;;;;;;;;;;;;;20.50;49.05;99884.38;5020959;28;6942;-78
2022/06/19 04:16:32;;;;;;;;;;;;;;;20.51;49.16;99884.34;5021611;28;7296;-78
2022/06/19 04:19:04;;;;;;;;;;;;;;;20.56;48.70;99886.94;5012426;28;7471;-78
2022/06/19 04:21:35;;;;;;;;;;;;;;;20.61;48.14;99905.16;5021049;28;7177;-78
2022/06/19 04:24:04;;;;;;;;;;;;;;;20.64;47.93;99895.63;4996952;28;8495;-78
2022/06/19 04:26:35;;;;;;;;;;;;;;;20.65;47.76;99881.72;5010385;28;6811;-78
2022/06/19 04:29:02;;;;;;;;;;;;;;;20.70;47.88;99879.13;5020637;28;6819;-78
2022/06/19 04:31:28;;;;;;;;;;;;;;;20.73;47.76;99878.25;5020421;28;7085;-78
2022/06/19 04:33:54;;;;;;;;;;;;;;;20.78;47.93;99877.38;5021275;28;7875;-78
2022/06/19 04:36:24;;;;;;;;;;;;;;;20.89;47.27;99885.19;4995170;28;6955;-78
2022/06/19 04:38:51;;;;;;;;;;;;;;;21.01;47.50;99931.19;5020380;28;7234;-78
2022/06/19 04:41:25;;;;;;;;;;;;;;;21.13;47.28;99971.94;5022378;28;6811;-78
2022/06/19 04:43:52;;;;;;;;;;;;;;;21.28;47.09;99937.16;5030737;28;6815;-78
2022/06/19 04:46:19;;;;;;;;;;;;;;;21.38;46.74;99872.84;5029674;28;7294;-78
2022/06/19 04:48:45;;;;;;;;;;;;;;;21.43;46.36;99865.84;5021821;28;7903;-78
2022/06/19 04:51:12;;;;;;;;;;;;;;;21.45;45.88;99874.56;5011844;28;6804;-78
2022/06/19 04:53:39;;;;;;;;;;;;;;;21.45;46.15;99908.44;5028940;28;6800;-78
2022/06/19 04:56:11;;;;;;;;;;;;;;;21.48;45.89;99892.78;5028771;28;8128;-78
2022/06/19 04:58:38;;;;;;;;;;;;;;;21.47;45.23;99870.19;5005170;28;7663;-78
2022/06/19 05:01:19;;;;;;;;;;;;;;;21.45;45.35;99882.38;5016993;28;7758;-78
2022/06/19 05:03:45;;;;;;;;;;;;;;;21.46;45.41;99891.03;5028789;28;8543;-78
2022/06/19 05:06:10;;;;;;;;;;;;;;;21.54;45.37;99899.69;4997147;28;8437;-78
2022/06/19 05:08:36;;;;;;;;;;;;;;;21.65;45.58;99897.03;5022104;28;6795;-78
2022/06/19 05:11:02;;;;;;;;;;;;;;;21.76;45.29;99895.25;5025001;28;6783;-78
2022/06/19 05:13:28;;;;;;;;;;;;;;;21.94;44.94;99893.41;5013202;28;6788;-78
2022/06/19 05:16:12;;;;;;;;;;;;;;;22.15;44.41;99888.91;5027036;28;8430;-78
2022/06/19 05:18:39;;;;;;;;;;;;;;;22.29;43.96;99868.75;5020790;28;7942;-79
2022/06/19 05:21:05;;;;;;;;;;;;;;;22.41;43.28;99861.72;4995988;28;8578;-79
2022/06/19 05:23:34;;;;;;;;;;;;;;;22.52;42.98;99853.78;5000062;28;6867;-78
2022/06/19 05:26:16;;;;;;;;;;;;;;;22.60;42.29;99836.31;5003329;28;6803;-78
2022/06/19 05:28:43;;;;;;;;;;;;;;;22.65;41.99;99844.97;5012465;28;8709;-78
2022/06/19 05:31:09;;;;;;;;;;;;;;;22.67;41.44;99845.81;5015838;28;7020;-78
2022/06/19 05:33:35;;;;;;;;;;;;;;;22.62;40.30;99855.44;5012886;28;6796;-78
2022/06/19 05:36:01;;;;;;;;;;;;;;;22.51;40.02;99845.09;5016639;28;7155;-78
2022/06/19 05:38:28;;;;;;;;;;;;;;;22.46;39.86;99844.25;5007578;28;8519;-78
2022/06/19 05:40:58;;;;;;;;;;;;;;;22.45;40.04;99842.53;5003499;28;7023;-78
2022/06/19 05:43:26;;;;;;;;;;;;;;;22.50;39.68;99819.00;5004352;28;6920;-78
2022/06/19 05:45:57;;;;;;;;;;;;;;;22.59;39.86;99804.09;5014800;28;6847;-78
2022/06/19 05:48:24;;;;;;;;;;;;;;;22.74;39.76;99797.84;5027534;28;7048;-78
2022/06/19 05:51:09;;;;;;;;;;;;;;;22.94;39.86;99786.28;5016979;28;6875;-78
2022/06/19 05:53:47;;;;;;;;;;;;;;;23.19;40.48;99791.16;5018115;28;6807;-78
2022/06/19 05:56:13;;;;;;;;;;;;;;;23.43;40.44;99795.22;5017518;28;6820;-78
2022/06/19 05:58:41;;;;;;;;;;;;;;;23.63;40.21;99794.03;5020196;28;6896;-78
2022/06/19 06:01:08;;;;;;;;;;;;;;;23.79;39.38;99796.44;4982896;28;8603;-78
2022/06/19 06:03:34;;;;;;;;;;;;;;;23.92;39.22;99789.25;4998689;28;8511;-78
2022/06/19 06:06:07;;;;;;;;;;;;;;;23.98;38.95;99795.22;5018370;28;6799;-78
2022/06/19 06:08:37;;;;;;;;;;;;;;;24.00;38.34;99803.91;5002429;28;7218;-78
2022/06/19 06:11:04;;;;;;;;;;;;;;;24.03;38.56;99817.81;5011310;28;8499;-78
2022/06/19 06:13:30;;;;;;;;;;;;;;;24.05;38.30;99823.94;5017245;28;6827;-78
2022/06/19 06:15:56;;;;;;;;;;;;;;;24.05;37.85;99803.00;5003284;28;8488;-78
2022/06/19 06:18:22;;;;;;;;;;;;;;;24.06;37.83;99796.88;5016964;28;6792;-78
2022/06/19 06:21:03;;;;;;;;;;;;;;;24.09;38.58;99784.59;5011242;28;7104;-78
2022/06/19 06:23:30;;;;;;;;;;;;;;;24.19;38.66;99807.97;5011674;28;6819;-78
2022/06/19 06:26:02;;;;;;;;;;;;;;;24.27;38.46;99837.50;5019584;28;6971;-78
2022/06/19 06:28:28;;;;;;;;;;;;;;;24.34;37.90;99807.72;5016811;28;6803;-78
2022/06/19 06:30:54;;;;;;;;;;;;;;;24.38;37.57;99790.19;5015007;28;6811;-78
2022/06/19 06:33:19;;;;;;;;;;;;;;;24.40;38.04;99791.00;5017175;28;6800;-78
2022/06/19 06:35:45;;;;;;;;;;;;;;;24.41;37.92;99834.63;5017975;28;6874;-78
2022/06/19 06:38:11;;;;;;;;;;;;;;;24.40;37.56;99861.72;5016425;28;7021;-78
2022/06/19 06:40:36;;;;;;;;;;;;;;;24.36;37.56;99879.25;5017318;28;7164;-78
2022/06/19 06:43:02;;;;;;;;;;;;;;;24.27;37.08;99921.28;5017109;28;6985;-78
2022/06/19 06:45:28;;;;;;;;;;;;;;;24.23;37.62;99962.34;5017567;28;6803;-78
2022/06/19 06:47:53;;;;;;;;;;;;;;;24.27;37.90;99977.16;5017261;28;6823;-78
2022/06/19 06:50:19;;;;;;;;;;;;;;;24.38;38.03;100028.50;5001812;28;7129;-79
2022/06/19 06:52:46;;;;;;;;;;;;;;;24.54;37.56;100134.75;5018259;28;6787;-79
2022/06/19 06:55:13;;;;;;;;;;;;;;;24.69;37.52;100153.75;5025959;28;6792;-77
2022/06/19 06:57:39;;;;;;;;;;;;;;;24.76;36.97;100165.88;5000009;28;9660;-77
2022/06/19 07:00:08;;;;;;;;;;;;;;;24.77;37.35;100123.06;5000012;28;6803;-77
2022/06/19 07:02:34;;;;;;;;;;;;;;;24.75;36.58;100080.31;5014920;28;6847;-77
2022/06/19 07:05:00;;;;;;;;;;;;;;;24.67;36.77;100124.09;4991703;28;6966;-77
2022/06/19 07:07:25;;;;;;;;;;;;;;;24.68;36.61;100150.28;5016800;28;6792;-77
2022/06/19 07:09:51;;;;;;;;;;;;;;;24.72;36.59;100164.19;5016605;28;7701;-77
2022/06/19 07:12:17;;;;;;;;;;;;;;;24.76;36.49;100103.00;5016190;28;6870;-77
2022/06/19 07:14:42;;;;;;;;;;;;;;;24.79;36.54;100082.00;5016535;28;7158;-77
2022/06/19 07:17:08;;;;;;;;;;;;;;;24.85;36.34;100148.31;5017321;28;6799;-77
2022/06/19 07:19:34;;;;;;;;;;;;;;;24.91;36.51;100117.66;5018037;28;6871;-77
2022/06/19 07:22:00;;;;;;;;;;;;;;;25.00;35.75;100093.03;5019274;28;7131;-77
2022/06/19 07:24:25;;;;;;;;;;;;;;;25.09;35.69;100111.22;5018445;28;8030;-78
2022/06/19 07:26:52;;;;;;;;;;;;;;;25.22;35.41;100105.78;4999866;28;6915;-77
2022/06/19 07:29:18;;;;;;;;;;;;;;;25.33;34.80;100089.84;5019158;28;6808;-77
2022/06/19 07:31:44;;;;;;;;;;;;;;;25.38;34.65;100081.00;5007316;28;6816;-77
2022/06/19 07:34:09;;;;;;;;;;;;;;;25.40;34.21;100064.34;4999609;28;6918;-77
2022/06/19 07:36:35;;;;;;;;;;;;;;;25.31;34.41;100047.06;4985896;28;6973;-77
2022/06/19 07:39:03;;;;;;;;;;;;;;;25.24;34.37;100054.16;5012826;28;7439;-77
2022/06/19 07:41:29;;;;;;;;;;;;;;;25.27;34.30;100042.78;5019312;28;7015;-77
2022/06/19 07:43:56;;;;;;;;;;;;;;;25.36;34.43;100035.56;5003083;28;6968;-78
2022/06/19 07:46:23;;;;;;;;;;;;;;;25.54;33.92;100037.88;5007232;28;8514;-77
2022/06/19 07:51:34;;;;;;;;;;;;;;;26.04;34.27;100042.97;5012005;28;8689;-78
2022/06/19 07:54:01;;;;;;;;;;;;;;;26.33;34.01;100066.00;5016838;28;6949;-77
2022/06/19 07:56:27;;;;;;;;;;;;;;;26.53;33.68;100077.81;5027193;28;6962;-77
2022/06/19 07:58:54;;;;;;;;;;;;;;;26.73;33.91;100095.72;5025993;28;7195;-77
2022/06/19 08:01:20;;;;;;;;;;;;;;;26.92;32.98;100100.56;5007761;28;7963;-77
2022/06/19 08:03:46;;;;;;;;;;;;;;;26.99;32.67;100111.78;5019928;28;6776;-77
2022/06/19 08:06:14;;;;;;;;;;;;;;;27.02;32.48;100117.00;5009894;28;8017;-77
2022/06/19 08:08:41;;;;;;;;;;;;;;;27.21;32.60;100112.09;5017149;28;8263;-77
2022/06/19 08:11:07;;;;;;;;;;;;;;;27.39;31.98;100096.75;5016320;28;6974;-77
2022/06/19 08:13:34;;;;;;;;;;;;;;;27.46;31.82;100074.63;5020680;28;7144;-77
2022/06/19 08:16:08;;;;;;;;;;;;;;;27.49;31.55;100071.91;5020347;28;7157;-77
2022/06/19 08:18:36;;;;;;;;;;;;;;;27.47;31.10;100067.59;5000340;28;8439;-77
2022/06/19 08:21:03;;;;;;;;;;;;;;;27.45;31.36;100049.22;4997015;28;7031;-77
2022/06/19 08:23:30;;;;;;;;;;;;;;;27.64;31.33;100051.38;5010133;28;8447;-77
2022/06/19 08:25:56;;;;;;;;;;;;;;;27.81;30.70;100049.09;5016586;28;6819;-76
2022/06/19 08:31:04;;;;;;;;;;;;;;;27.97;30.54;100043.38;5012073;28;6827;-77
2022/06/19 08:33:30;;;;;;;;;;;;;;;28.22;29.96;100047.94;5016484;28;8439;-77
2022/06/19 08:36:03;;;;;;;;;;;;;;;28.40;29.93;100028.91;5022579;28;6919;-77
2022/06/19 08:38:37;;;;;;;;;;;;;;;28.39;29.98;100035.09;5011835;28;8084;-76
2022/06/19 08:41:05;;;;;;;;;;;;;;;28.35;30.73;100037.88;5000111;28;6984;-77
2022/06/19 08:43:52;;;;;;;;;;;;;;;28.26;30.61;100039.00;5030567;28;6914;-77
2022/06/19 08:46:36;;;;;;;;;;;;;;;28.13;30.01;100026.19;5011054;28;7580;-77
2022/06/19 08:49:49;;;;;;;;;;;;;;;27.79;29.66;100026.38;5018424;28;8440;-77
2022/06/19 08:52:59;;;;;;;;;;;;;;;27.25;30.07;100034.84;5022242;28;6831;-77
2022/06/19 08:55:49;;;;;;;;;;;;;;;26.78;30.86;100018.53;5013716;28;7035;-77
2022/06/19 08:58:39;;;;;;;;;;;;;;;26.47;31.07;100022.78;5018150;28;6815;-77
2022/06/19 09:01:11;;;;;;;;;;;;;;;26.17;31.47;100019.94;5010987;28;8954;-77
2022/06/19 09:07:31;;;;;;;;;;;;;;;25.71;32.17;100061.19;4994010;28;7205;-77
2022/06/19 09:10:38;;;;;;;;;;;;;;;25.68;32.07;100061.22;5035096;28;7227;-77
2022/06/19 09:13:54;;;;;;;;;;;;;;;25.66;32.82;100027.16;5021073;28;6995;-77
2022/06/19 09:17:01;;;;;;;;;;;;;;;25.63;33.24;100017.59;5032630;28;7847;-77
2022/06/19 09:19:56;;;;;;;;;;;;;;;25.58;32.66;99958.25;5018984;28;7174;-77
2022/06/19 09:23:08;;;;;;;;;;;;;;;25.46;33.41;99998.66;5016596;28;7899;-77
2022/06/19 09:25:44;;;;;;;;;;;;;;;25.42;33.38;99963.78;5017719;28;7215;-77
2022/06/19 09:28:36;;;;;;;;;;;;;;;25.36;33.65;100017.22;5015732;28;7407;-77
2022/06/19 09:31:19;;;;;;;;;;;;;;;25.35;33.82;99983.13;5011267;28;9273;-79
2022/06/19 09:33:56;;;;;;;;;;;;;;;25.27;33.73;100001.66;5006391;28;6819;-78
2022/06/19 09:37:02;;;;;;;;;;;;;;;25.16;33.48;99978.28;5018584;28;8417;-79
2022/06/19 09:40:00;;;;;;;;;;;;;;;25.04;34.10;99937.44;5020864;28;7659;-79
2022/06/19 09:43:00;;;;;;;;;;;;;;;24.97;34.63;99878.16;5009954;28;6819;-78
2022/06/19 09:45:55;;;;;;;;;;;;;;;24.86;34.69;99798.91;5015196;28;6832;-79
2022/06/19 09:48:30;;;;;;;;;;;;;;;24.74;35.81;99697.78;5034722;28;7085;-79
2022/06/19 09:51:07;;;;;;;;;;;;;;;24.63;35.76;99656.97;5004196;28;6977;-79
2022/06/19 09:54:00;;;;;;;;;;;;;;;24.58;35.65;99677.19;5021267;28;6983;-79
2022/06/19 09:56:38;;;;;;;;;;;;;;;24.51;36.20;99762.00;5021741;28;6995;-79
2022/06/19 09:59:49;;;;;;;;;;;;;;;24.48;36.51;99844.13;5018796;28;8803;-79
2022/06/19 10:02:31;;;;;;;;;;;;;;;24.49;36.17;99834.53;5022814;28;7879;-79
2022/06/19 10:05:18;;;;;;;;;;;;;;;24.54;36.46;99929.56;5004691;28;7168;-80
2022/06/19 10:07:56;;;;;;;;;;;;;;;24.74;36.39;99920.50;5019686;28;6972;-79
2022/06/19 10:11:01;;;;;;;;;;;;;;;25.07;36.76;99950.47;5026542;28;6898;-79
2022/06/19 10:13:48;;;;;;;;;;;;;;;25.51;36.30;99918.16;5016571;28;8054;-79
2022/06/19 10:16:33;;;;;;;;;;;;;;;25.97;35.28;99895.25;5015604;28;7157;-79
2022/06/19 10:19:13;;;;;;;;;;;;;;;26.40;34.94;99877.59;4994020;28;7850;-79
2022/06/19 10:22:25;;;;;;;;;;;;;;;26.92;34.16;99915.69;5018593;28;6800;-79
2022/06/19 10:25:14;;;;;;;;;;;;;;;27.16;33.74;99938.66;5006798;28;7235;-81
2022/06/19 10:27:54;;;;;;;;;;;;;;;27.51;33.55;99937.66;5008520;28;6792;-80
2022/06/19 10:30:25;;;;;;;;;;;;;;;28.12;33.49;99979.72;5012182;28;7006;-80
2022/06/19 10:33:24;;;;;;;;;;;;;;;28.92;33.08;99980.63;5014090;28;6795;-80
2022/06/19 10:36:17;;;;;;;;;;;;;;;29.69;31.57;99960.28;4999932;28;6984;-78
2022/06/19 10:39:26;;;;;;;;;;;;;;;30.20;30.48;99928.34;5013969;28;7171;-78
2022/06/19 10:42:01;;;;;;;;;;;;;;;30.28;29.25;99957.13;5023169;28;7209;-78
2022/06/19 10:45:05;;;;;;;;;;;;;;;30.25;28.96;99966.03;5013880;28;6816;-78
2022/06/19 10:48:03;;;;;;;;;;;;;;;30.20;29.03;99945.06;5007622;28;7013;-78
2022/06/19 10:51:13;;;;;;;;;;;;;;;30.12;28.61;99925.16;5023240;28;7001;-78
2022/06/19 10:54:06;;;;;;;;;;;;;;;29.80;29.30;99904.41;4995568;28;7034;-78
2022/06/19 10:57:15;;;;;;;;;;;;;;;29.55;28.87;99897.44;4996003;28;6868;-78
2022/06/19 10:59:40;;;;;;;;;;;;;;;29.43;29.33;99890.00;5010564;28;7193;-78
2022/06/19 11:05:34;;;;;;;;;;;;;;;29.52;29.65;99890.50;5008330;28;6911;-78
2022/06/19 11:08:00;;;;;;;;;;;;;;;29.73;29.38;99906.41;5005800;28;7002;-79
2022/06/19 11:10:56;;;;;;;;;;;;;;;30.07;28.97;99907.72;5013155;28;8382;-78
2022/06/19 11:13:22;;;;;;;;;;;;;;;30.03;28.48;99910.53;5017298;28;6835;-79
2022/06/19 11:16:05;;;;;;;;;;;;;;;29.57;29.04;99929.06;5004702;28;6903;-78
2022/06/19 11:18:47;;;;;;;;;;;;;;;29.10;29.22;99928.13;5017185;28;7211;-78
2022/06/19 11:21:18;;;;;;;;;;;;;;;28.80;29.30;99920.41;5009279;28;6808;-78
2022/06/19 11:23:48;;;;;;;;;;;;;;;28.75;30.21;99936.38;5009137;28;7867;-78
2022/06/19 11:26:39;;;;;;;;;;;;;;;29.01;30.18;99950.41;5014070;28;9264;-78
2022/06/19 11:29:15;;;;;;;;;;;;;;;29.44;29.20;99955.03;5007849;28;7875;-77
2022/06/19 11:32:05;;;;;;;;;;;;;;;29.76;29.49;99966.16;5024590;28;6788;-77
2022/06/19 11:34:46;;;;;;;;;;;;;;;30.04;28.90;99984.44;5021200;28;6792;-78
2022/06/19 11:37:33;;;;;;;;;;;;;;;30.33;28.80;99985.06;4992478;28;7148;-77
2022/06/19 11:39:59;;;;;;;;;;;;;;;30.54;28.77;99992.16;5025391;28;6827;-78
2022/06/19 11:42:32;;;;;;;;;;;;;;;30.91;28.19;99987.97;5008279;28;7175;-78
2022/06/19 11:45:21;;;;;;;;;;;;;;;31.32;27.71;99984.44;5008742;28;7653;-77
2022/06/19 11:47:58;;;;;;;;;;;;;;;31.38;27.81;99976.19;5013490;28;6827;-77
2022/06/19 11:50:44;;;;;;;;;;;;;;;31.12;27.36;99967.63;5020716;28;8095;-77
2022/06/19 11:53:40;;;;;;;;;;;;;;;30.90;27.97;99943.91;5025367;28;6900;-79
2022/06/19 11:56:33;;;;;;;;;;;;;;;30.92;28.04;99947.34;5006028;28;8445;-77
2022/06/19 11:59:05;;;;;;;;;;;;;;;30.91;28.10;99972.09;5011703;28;6972;-77
2022/06/19 12:01:43;;;;;;;;;;;;;;;31.00;27.65;100005.19;5008835;28;6804;-77
2022/06/19 12:04:53;;;;;;;;;;;;;;;31.24;27.74;100026.25;5011869;28;7244;-77
2022/06/19 12:07:24;;;;;;;;;;;;;;;31.55;27.89;100003.69;5020381;28;6800;-77
2022/06/19 12:10:24;;;;;;;;;;;;;;;31.68;26.72;100004.84;5006473;28;6998;-77
2022/06/19 12:12:58;;;;;;;;;;;;;;;31.48;27.36;100028.72;5006761;28;6804;-78
2022/06/19 12:15:28;;;;;;;;;;;;;;;31.44;27.37;100030.69;5003743;28;6903;-76
2022/06/19 12:18:16;;;;;;;;;;;;;;;31.58;27.64;100051.19;5004637;28;7700;-78
2022/06/19 12:20:54;;;;;;;;;;;;;;;31.92;27.33;100049.69;4999785;28;7197;-78
2022/06/19 12:23:28;;;;;;;;;;;;;;;31.98;27.17;100060.00;4981136;28;8708;-76
2022/06/19 12:25:58;;;;;;;;;;;;;;;31.48;27.02;100056.06;5011330;28;6895;-78
2022/06/19 12:28:52;;;;;;;;;;;;;;;30.90;28.01;100058.53;5031181;28;7037;-77
2022/06/19 12:31:37;;;;;;;;;;;;;;;30.65;28.47;100081.63;5021599;28;7352;-78
2022/06/19 12:34:36;;;;;;;;;;;;;;;30.60;28.14;100080.00;5012923;28;6811;-78
2022/06/19 12:37:02;;;;;;;;;;;;;;;30.55;28.33;100100.50;5004744;28;7639;-76
2022/06/19 12:39:31;;;;;;;;;;;;;;;30.57;29.13;100143.59;5001753;28;6981;-77
2022/06/19 12:42:31;;;;;;;;;;;;;;;30.78;29.02;100164.84;4996647;28;6975;-77
2022/06/19 12:44:59;;;;;;;;;;;;;;;31.10;29.22;100162.66;5015563;28;7178;-77
2022/06/19 12:47:48;;;;;;;;;;;;;;;31.29;28.29;100194.53;5018307;28;6819;-77
2022/06/19 12:50:45;;;;;;;;;;;;;;;31.48;28.84;100207.00;5012111;28;6824;-78
2022/06/19 12:53:55;;;;;;;;;;;;;;;31.67;28.67;100207.03;5010648;28;6976;-77
2022/06/19 12:56:48;;;;;;;;;;;;;;;32.02;28.73;100190.56;5013333;28;7015;-75
2022/06/19 12:59:58;;;;;;;;;;;;;;;32.26;27.67;100162.06;5014692;28;6819;-77
2022/06/19 13:02:40;;;;;;;;;;;;;;;32.09;27.50;100149.59;5012443;28;7227;-77
2022/06/19 13:05:35;;;;;;;;;;;;;;;31.98;27.85;100175.72;5020925;28;7215;-78
2022/06/19 13:08:25;;;;;;;;;;;;;;;31.86;27.89;100172.69;5009019;28;8554;-75
2022/06/19 13:11:17;;;;;;;;;;;;;;;31.84;28.29;100179.88;4998562;28;6819;-77
2022/06/19 13:14:23;;;;;;;;;;;;;;;32.00;27.85;100171.19;5009063;28;6989;-77
2022/06/19 13:17:06;;;;;;;;;;;;;;;32.11;27.75;100155.69;5016709;28;7222;-77
2022/06/19 13:19:54;;;;;;;;;;;;;;;32.05;27.75;100171.88;5028821;28;7247;-76
2022/06/19 13:22:57;;;;;;;;;;;;;;;32.12;28.29;100161.84;5013276;28;6807;-76
2022/06/19 13:26:03;;;;;;;;;;;;;;;32.27;28.10;100152.31;5015363;28;7276;-76
2022/06/19 13:28:44;;;;;;;;;;;;;;;32.27;27.77;100149.66;5017513;28;9015;-78
2022/06/19 13:31:29;;;;;;;;;;;;;;;32.34;28.07;100155.53;5017197;28;8056;-76
2022/06/19 13:34:08;;;;;;;;;;;;;;;32.38;27.79;100158.00;5011703;28;8194;-76
2022/06/19 13:37:04;;;;;;;;;;;;;;;32.46;28.09;100170.03;5014351;28;10150;-76
2022/06/19 13:40:01;;;;;;;;;;;;;;;32.54;27.74;100173.19;5013963;28;6812;-76
2022/06/19 13:43:15;;;;;;;;;;;;;;;32.31;27.74;100167.16;5001477;28;7290;-77
2022/06/19 13:45:49;;;;;;;;;;;;;;;32.14;28.06;100173.22;5025838;28;6847;-77
2022/06/19 13:48:41;;;;;;;;;;;;;;;32.12;28.57;100172.44;5031922;28;7007;-76
2022/06/19 13:51:27;;;;;;;;;;;;;;;32.14;28.11;100174.09;5014096;28;6812;-77
2022/06/19 13:54:19;;;;;;;;;;;;;;;32.05;28.54;100181.59;5011290;28;6978;-77